Time;durP1;ratioP1;P1;durP2;ratioP2;P2;SDS_P1;SDS_P2;PMS_P1;PMS_P2;Temp;Humidity;BMP_temperature;BMP_pressure;BME280_temperature;BME280_humidity;BME280_pressure;Samples;Min_cycle;Max_cycle;Signal;HPM_P1;HPM_P2
2022/10/15 00:00:29;;;;;;;23.65;16.83;;;14.00;99.90;;;;;;5041497;22;20716;-72
2022/10/15 00:02:55;;;;;;;24.83;16.80;;;14.00;99.90;;;;;;4992023;28;20190;-71
2022/10/15 00:05:21;;;;;;;24.55;17.05;;;14.10;99.90;;;;;;5002300;28;20280;-71
2022/10/15 00:07:47;;;;;;;22.00;17.08;;;14.10;99.90;;;;;;5001701;28;20255;-71
2022/10/15 00:10:13;;;;;;;23.92;17.63;;;14.10;99.90;;;;;;4997149;28;20292;-70
2022/10/15 00:12:39;;;;;;;25.27;17.13;;;14.00;99.90;;;;;;4997815;28;20240;-71
2022/10/15 00:15:05;;;;;;;24.93;17.57;;;14.00;99.90;;;;;;5001408;28;20182;-71
2022/10/15 00:17:33;;;;;;;28.60;17.20;;;14.00;99.90;;;;;;4998607;28;20206;-71
2022/10/15 00:19:58;;;;;;;23.47;17.60;;;14.00;99.90;;;;;;4984408;28;20265;-71
2022/10/15 00:22:24;;;;;;;26.60;17.80;;;13.90;99.90;;;;;;4999048;28;20204;-71
2022/10/15 00:24:49;;;;;;;23.83;18.10;;;13.90;99.90;;;;;;4998333;28;20708;-71
2022/10/15 00:27:15;;;;;;;24.30;17.30;;;13.90;99.90;;;;;;5004019;28;20185;-71
2022/10/15 00:29:41;;;;;;;27.95;17.75;;;13.90;99.90;;;;;;4993076;28;20209;-71
2022/10/15 00:32:06;;;;;;;24.63;17.67;;;14.00;99.90;;;;;;5001286;28;20251;-71
2022/10/15 00:34:32;;;;;;;21.80;17.87;;;13.90;99.90;;;;;;4997826;28;20708;-71
2022/10/15 00:36:57;;;;;;;26.37;17.27;;;13.90;99.90;;;;;;4991853;28;20271;-71
2022/10/15 00:39:23;;;;;;;26.93;19.43;;;13.90;99.90;;;;;;4999564;28;20231;-71
2022/10/15 00:41:48;;;;;;;28.40;17.77;;;13.90;99.90;;;;;;4998993;28;20193;-71
2022/10/15 00:44:20;;;;;;;28.17;19.60;;;13.90;99.90;;;;;;4997179;28;20211;-71
2022/10/15 00:46:48;;;;;;;28.85;18.83;;;13.90;99.90;;;;;;4993672;28;20216;-71
2022/10/15 00:49:23;;;;;;;25.58;18.20;;;13.90;99.90;;;;;;5001564;28;20208;-71
2022/10/15 00:51:58;;;;;;;24.77;18.17;;;13.80;99.90;;;;;;4995578;28;20325;-71
2022/10/15 00:54:26;;;;;;;26.80;18.43;;;13.80;99.90;;;;;;4993877;28;20719;-71
2022/10/15 00:56:52;;;;;;;26.30;18.13;;;13.80;99.90;;;;;;4999295;28;20204;-70
2022/10/15 00:59:21;;;;;;;25.47;18.87;;;13.80;99.90;;;;;;4994031;28;20717;-70
2022/10/15 01:01:47;;;;;;;28.63;18.73;;;13.80;99.90;;;;;;4995446;28;20643;-71
2022/10/15 01:04:14;;;;;;;24.47;18.97;;;13.80;99.90;;;;;;4996210;28;20225;-70
2022/10/15 01:06:39;;;;;;;26.23;19.07;;;13.80;99.90;;;;;;4998966;28;20236;-71
2022/10/15 01:09:05;;;;;;;27.40;19.53;;;13.70;99.90;;;;;;4994780;28;20546;-71
2022/10/15 01:11:45;;;;;;;26.97;19.70;;;13.70;99.90;;;;;;4994141;28;20178;-71
2022/10/15 01:14:41;;;;;;;28.20;19.07;;;13.80;99.90;;;;;;5016585;28;20636;-71
2022/10/15 01:17:13;;;;;;;27.07;19.60;;;13.80;99.90;;;;;;5008105;28;20588;-71
2022/10/15 01:19:57;;;;;;;28.90;20.23;;;13.70;99.90;;;;;;4993958;28;20213;-71
2022/10/15 01:22:29;;;;;;;28.83;20.17;;;13.80;99.90;;;;;;5011310;28;20205;-71
2022/10/15 01:25:40;;;;;;;29.10;20.47;;;13.70;99.90;;;;;;4997732;28;20209;-71
2022/10/15 01:28:49;;;;;;;26.83;20.13;;;13.80;99.90;;;;;;4993490;28;20213;-71
2022/10/15 01:31:53;;;;;;;26.30;20.03;;;13.70;99.90;;;;;;4997962;28;20209;-71
2022/10/15 01:34:24;;;;;;;31.17;20.33;;;13.70;99.90;;;;;;4993798;28;20270;-71
2022/10/15 01:36:58;;;;;;;31.93;21.07;;;13.70;99.90;;;;;;4992589;28;20213;-71
2022/10/15 01:39:32;;;;;;;27.03;20.30;;;13.70;99.90;;;;;;4998761;28;20234;-71
2022/10/15 01:42:26;;;;;;;30.47;19.63;;;13.70;99.90;;;;;;4998632;28;20660;-71
2022/10/15 01:44:56;;;;;;;30.73;20.65;;;13.70;99.90;;;;;;4993891;28;20202;-71
2022/10/15 01:47:50;;;;;;;32.97;20.70;;;13.70;99.90;;;;;;4991791;28;20636;-71
2022/10/15 01:50:19;;;;;;;28.97;21.03;;;13.70;99.90;;;;;;4996912;28;20221;-71
2022/10/15 01:52:44;;;;;;;29.23;20.27;;;13.80;99.90;;;;;;4994803;28;20209;-71
2022/10/15 01:55:14;;;;;;;28.48;21.35;;;13.70;99.90;;;;;;4995283;28;20228;-71
2022/10/15 01:57:43;;;;;;;31.27;21.30;;;13.70;99.90;;;;;;4998451;28;20221;-71
2022/10/15 02:00:10;;;;;;;31.80;21.10;;;13.70;99.90;;;;;;5006815;28;20232;-71
2022/10/15 02:02:35;;;;;;;29.43;21.13;;;13.70;99.90;;;;;;4993909;28;20189;-71
2022/10/15 02:05:01;;;;;;;33.70;21.57;;;13.70;99.90;;;;;;5003826;28;20595;-71
2022/10/15 02:07:27;;;;;;;33.60;21.07;;;13.70;99.90;;;;;;4996915;28;20206;-71
2022/10/15 02:09:55;;;;;;;31.90;22.23;;;13.70;99.90;;;;;;4994069;28;20287;-70
2022/10/15 02:12:44;;;;;;;30.20;20.97;;;13.70;99.90;;;;;;4996166;28;20227;-70
2022/10/15 02:15:45;;;;;;;29.90;20.53;;;13.70;99.90;;;;;;4997967;28;20183;-71
2022/10/15 02:18:24;;;;;;;29.27;20.80;;;13.70;99.90;;;;;;4964344;28;20206;-71
2022/10/15 02:20:57;;;;;;;28.17;20.55;;;13.70;99.90;;;;;;4985159;28;20205;-71
2022/10/15 02:23:31;;;;;;;28.17;20.23;;;13.70;99.90;;;;;;4997187;28;20579;-71
2022/10/15 02:25:58;;;;;;;31.93;20.90;;;13.70;99.90;;;;;;4995952;28;20782;-71
2022/10/15 02:28:26;;;;;;;31.47;21.27;;;13.70;99.90;;;;;;4993226;28;20252;-71
2022/10/15 02:30:53;;;;;;;30.83;22.00;;;13.70;99.90;;;;;;4987724;28;20233;-71
2022/10/15 02:33:20;;;;;;;29.70;20.73;;;13.70;99.90;;;;;;5002254;28;20185;-71
2022/10/15 02:35:48;;;;;;;29.63;21.30;;;13.80;99.90;;;;;;4991540;28;20711;-71
2022/10/15 02:38:18;;;;;;;31.43;21.20;;;13.70;99.90;;;;;;4990627;28;20205;-71
2022/10/15 02:40:44;;;;;;;28.60;21.33;;;13.80;99.90;;;;;;4990469;28;20209;-70
2022/10/15 02:43:14;;;;;;;31.95;22.17;;;13.80;99.90;;;;;;4990626;28;20593;-71
2022/10/15 02:45:40;;;;;;;29.07;20.40;;;13.80;99.90;;;;;;4989568;28;20700;-71
2022/10/15 02:48:06;;;;;;;30.52;21.13;;;13.90;99.90;;;;;;4989285;28;20181;-71
2022/10/15 02:50:31;;;;;;;31.77;21.77;;;13.90;99.90;;;;;;4991011;28;20578;-70
2022/10/15 02:52:57;;;;;;;31.15;21.17;;;13.90;99.90;;;;;;4990734;28;20209;-71
2022/10/15 02:55:22;;;;;;;27.13;19.38;;;13.80;99.90;;;;;;4991038;28;20672;-71
2022/10/15 02:57:48;;;;;;;30.38;21.45;;;13.80;99.90;;;;;;4990385;28;20256;-71
2022/10/15 03:00:14;;;;;;;31.63;21.50;;;13.80;99.90;;;;;;4989823;28;20232;-71
2022/10/15 03:02:39;;;;;;;28.83;20.25;;;13.80;99.90;;;;;;4992141;28;20228;-70
2022/10/15 03:05:05;;;;;;;30.77;20.95;;;13.80;99.90;;;;;;4990443;28;20553;-70
2022/10/15 03:07:31;;;;;;;31.52;21.42;;;13.80;99.90;;;;;;4992394;28;20292;-70
2022/10/15 03:09:57;;;;;;;29.25;21.70;;;13.90;99.90;;;;;;4990010;28;20220;-70
2022/10/15 03:12:24;;;;;;;29.63;19.98;;;13.90;99.90;;;;;;4993092;28;20180;-70
2022/10/15 03:14:50;;;;;;;28.80;20.83;;;13.90;99.90;;;;;;4989793;28;20178;-70
2022/10/15 03:17:16;;;;;;;25.90;19.35;;;13.80;99.90;;;;;;4990634;28;20566;-71
2022/10/15 03:19:41;;;;;;;28.92;20.75;;;13.80;99.90;;;;;;4990459;28;20594;-70
2022/10/15 03:22:07;;;;;;;33.13;21.42;;;13.80;99.90;;;;;;4990595;28;20214;-71
2022/10/15 03:24:32;;;;;;;29.50;21.77;;;13.80;99.90;;;;;;4990418;28;20600;-71
2022/10/15 03:26:58;;;;;;;33.60;21.50;;;13.70;99.90;;;;;;4987097;28;20635;-70
2022/10/15 03:29:23;;;;;;;28.00;20.65;;;13.70;99.90;;;;;;4990332;28;20284;-71
2022/10/15 03:31:49;;;;;;;32.73;20.83;;;13.70;99.90;;;;;;4999542;28;20723;-71
2022/10/15 03:34:15;;;;;;;30.57;21.57;;;13.70;99.90;;;;;;4989978;28;20209;-71
2022/10/15 03:36:40;;;;;;;29.35;20.45;;;13.70;99.90;;;;;;4990394;28;20209;-71
2022/10/15 03:39:07;;;;;;;27.83;20.60;;;13.70;99.90;;;;;;4990104;28;20202;-71
2022/10/15 03:41:32;;;;;;;28.17;19.70;;;13.70;99.90;;;;;;4990516;28;20197;-71
2022/10/15 03:44:02;;;;;;;25.73;20.00;;;13.70;99.90;;;;;;4989929;28;20712;-71
2022/10/15 03:46:28;;;;;;;25.17;18.48;;;13.70;99.90;;;;;;4985569;28;20209;-71
2022/10/15 03:48:53;;;;;;;28.73;19.50;;;13.70;99.90;;;;;;4988694;28;20209;-71
2022/10/15 03:51:19;;;;;;;32.40;20.63;;;13.70;99.90;;;;;;4989906;28;20188;-71
2022/10/15 03:53:44;;;;;;;28.23;20.47;;;13.70;99.90;;;;;;4990674;28;20184;-71
2022/10/15 03:56:10;;;;;;;30.37;19.90;;;13.60;99.90;;;;;;4989812;28;20208;-71
2022/10/15 03:58:36;;;;;;;29.63;20.77;;;13.60;99.90;;;;;;4990232;28;20604;-71
2022/10/15 04:01:07;;;;;;;29.00;19.77;;;13.70;99.90;;;;;;4989334;28;20619;-71
2022/10/15 04:03:32;;;;;;;27.77;19.80;;;13.70;99.90;;;;;;4992322;28;20792;-71
2022/10/15 04:05:58;;;;;;;25.90;18.80;;;13.70;99.90;;;;;;4989060;28;20190;-71
2022/10/15 04:08:23;;;;;;;25.98;18.83;;;13.70;99.90;;;;;;4991888;28;20601;-70
2022/10/15 04:10:50;;;;;;;26.47;19.87;;;13.70;99.90;;;;;;4989504;28;20221;-71
2022/10/15 04:13:15;;;;;;;28.20;19.03;;;13.70;99.90;;;;;;4991637;28;20198;-71
2022/10/15 04:15:41;;;;;;;25.60;19.20;;;13.70;99.90;;;;;;4993615;28;20228;-71
2022/10/15 04:18:06;;;;;;;25.67;20.10;;;13.60;99.90;;;;;;5001206;28;20197;-71
2022/10/15 04:20:32;;;;;;;25.63;19.02;;;13.60;99.90;;;;;;4992337;28;20198;-71
2022/10/15 04:22:58;;;;;;;26.87;18.53;;;13.60;99.90;;;;;;4993815;28;20205;-71
2022/10/15 04:25:23;;;;;;;30.07;18.70;;;13.60;99.90;;;;;;4993445;28;20205;-71
2022/10/15 04:27:49;;;;;;;27.77;19.10;;;13.60;99.90;;;;;;4993528;28;20213;-71
2022/10/15 04:30:14;;;;;;;30.17;18.63;;;13.60;99.90;;;;;;4992621;28;20197;-71
2022/10/15 04:32:40;;;;;;;28.07;19.50;;;13.60;99.90;;;;;;4989379;28;20182;-71
2022/10/15 04:35:06;;;;;;;25.97;18.50;;;13.60;99.90;;;;;;4992917;28;20703;-71
2022/10/15 04:37:33;;;;;;;29.83;19.67;;;13.60;99.90;;;;;;4993144;28;20213;-71
2022/10/15 04:39:58;;;;;;;28.17;19.50;;;13.60;99.90;;;;;;4992577;28;20221;-71
2022/10/15 04:42:24;;;;;;;26.53;19.33;;;13.60;99.90;;;;;;5008420;28;20217;-71
2022/10/15 04:44:49;;;;;;;25.73;17.80;;;13.70;99.90;;;;;;4993458;28;20169;-71
2022/10/15 04:47:15;;;;;;;24.40;18.00;;;13.70;99.90;;;;;;4992810;28;20221;-71
2022/10/15 04:49:41;;;;;;;21.60;16.83;;;13.70;99.90;;;;;;4990536;28;20220;-69
2022/10/15 04:52:06;;;;;;;23.40;17.70;;;13.70;99.90;;;;;;4997143;28;20221;-71
2022/10/15 04:54:32;;;;;;;26.53;17.97;;;13.70;99.90;;;;;;4994192;28;20233;-71
2022/10/15 04:56:58;;;;;;;27.57;18.13;;;13.70;99.90;;;;;;5001170;28;20192;-71
2022/10/15 04:59:23;;;;;;;25.57;18.13;;;13.70;99.90;;;;;;4999001;28;20221;-71
2022/10/15 05:01:50;;;;;;;25.60;17.37;;;13.70;99.90;;;;;;4995590;28;20217;-70
2022/10/15 05:04:16;;;;;;;23.77;17.13;;;13.80;99.90;;;;;;4996744;28;20212;-71
2022/10/15 05:06:41;;;;;;;23.47;17.10;;;13.80;99.90;;;;;;4997788;28;20591;-71
2022/10/15 05:09:07;;;;;;;25.87;17.50;;;13.80;99.90;;;;;;5004111;28;20209;-70
2022/10/15 05:11:36;;;;;;;25.47;16.83;;;13.70;99.90;;;;;;4994288;28;20193;-71
2022/10/15 05:14:03;;;;;;;25.77;17.90;;;13.80;99.90;;;;;;4997170;28;20275;-71
2022/10/15 05:16:29;;;;;;;24.40;17.07;;;13.70;99.90;;;;;;5013690;28;20214;-71
2022/10/15 05:18:58;;;;;;;23.03;17.23;;;13.70;99.90;;;;;;4995405;28;20229;-71
2022/10/15 05:21:23;;;;;;;24.90;16.77;;;13.70;99.90;;;;;;4991341;28;20715;-71
2022/10/15 05:23:50;;;;;;;22.97;16.43;;;13.70;99.90;;;;;;4998488;28;20221;-71
2022/10/15 05:26:21;;;;;;;22.23;16.38;;;13.70;99.90;;;;;;4997914;28;20637;-71
2022/10/15 05:28:48;;;;;;;25.90;16.57;;;13.70;99.90;;;;;;4993950;28;20688;-71
2022/10/15 05:31:16;;;;;;;21.97;16.50;;;13.60;99.90;;;;;;4996856;28;20219;-71
2022/10/15 05:33:42;;;;;;;20.03;15.80;;;13.60;99.90;;;;;;4993581;28;20217;-71
2022/10/15 05:36:16;;;;;;;23.40;17.40;;;13.60;99.90;;;;;;4995521;28;20567;-71
2022/10/15 05:38:42;;;;;;;21.40;16.20;;;13.50;99.90;;;;;;4995420;28;20201;-70
2022/10/15 05:41:08;;;;;;;23.33;16.87;;;13.50;99.90;;;;;;5000347;28;20212;-70
2022/10/15 05:43:33;;;;;;;23.50;16.60;;;13.60;99.90;;;;;;4995809;28;20689;-71
2022/10/15 05:45:59;;;;;;;26.20;16.97;;;13.60;99.90;;;;;;5003003;28;20264;-70
2022/10/15 05:48:24;;;;;;;22.63;15.98;;;13.60;99.90;;;;;;4998899;28;20220;-70
2022/10/15 05:50:50;;;;;;;21.33;15.57;;;13.60;99.90;;;;;;4995751;28;20202;-70
2022/10/15 05:53:16;;;;;;;19.98;15.70;;;13.60;99.90;;;;;;4994355;28;20622;-70
2022/10/15 05:55:41;;;;;;;22.80;16.03;;;13.70;99.90;;;;;;4995192;28;20217;-70
2022/10/15 05:58:07;;;;;;;21.67;16.37;;;13.70;99.90;;;;;;5000089;28;20217;-70
2022/10/15 06:00:34;;;;;;;23.10;16.60;;;13.60;99.90;;;;;;4995257;28;20233;-70
2022/10/15 06:02:59;;;;;;;20.13;15.33;;;13.60;99.90;;;;;;4995238;28;20232;-71
2022/10/15 06:05:25;;;;;;;21.75;15.23;;;13.60;99.90;;;;;;4997013;28;20644;-71
2022/10/15 06:07:51;;;;;;;20.50;15.70;;;13.60;99.90;;;;;;4995184;28;20217;-71
2022/10/15 06:10:17;;;;;;;21.13;14.77;;;13.60;99.90;;;;;;4995052;28;20212;-71
2022/10/15 06:12:47;;;;;;;22.48;15.75;;;13.60;99.90;;;;;;4992093;28;20233;-71
2022/10/15 06:15:13;;;;;;;19.15;14.13;;;13.70;99.90;;;;;;4999359;28;20473;-71
2022/10/15 06:17:38;;;;;;;19.50;14.93;;;13.70;99.90;;;;;;4995317;28;20212;-71
2022/10/15 06:20:04;;;;;;;21.83;15.50;;;13.70;99.90;;;;;;4993444;28;20216;-71
2022/10/15 06:22:30;;;;;;;19.73;15.38;;;13.90;99.90;;;;;;4998297;28;20215;-71
2022/10/15 06:24:55;;;;;;;20.30;14.38;;;14.10;99.90;;;;;;4996859;28;20608;-71
2022/10/15 06:27:21;;;;;;;18.33;13.77;;;14.30;99.90;;;;;;4995006;28;20200;-71
2022/10/15 06:29:46;;;;;;;19.88;13.60;;;15.00;99.90;;;;;;4987345;28;20586;-73
2022/10/15 06:32:12;;;;;;;19.23;13.43;;;15.00;99.90;;;;;;5014245;28;20220;-71
2022/10/15 06:34:37;;;;;;;17.73;13.02;;;15.20;99.90;;;;;;4994488;28;20210;-71
2022/10/15 06:37:03;;;;;;;15.52;12.57;;;16.40;99.90;;;;;;5001148;28;20218;-71
2022/10/15 06:39:28;;;;;;;14.73;11.18;;;17.20;99.90;;;;;;4997683;28;20209;-71
2022/10/15 06:41:54;;;;;;;15.88;11.35;;;18.40;99.90;;;;;;4996650;28;20530;-71
2022/10/15 06:44:19;;;;;;;12.05;9.65;;;19.60;99.90;;;;;;5010200;28;20209;-72
2022/10/15 06:46:45;;;;;;;15.40;10.63;;;20.20;99.90;;;;;;4991639;28;20213;-72
2022/10/15 06:49:10;;;;;;;14.45;9.20;;;20.30;99.90;;;;;;4999907;28;20217;-72
2022/10/15 06:51:36;;;;;;;11.95;9.80;;;21.30;99.90;;;;;;4992911;28;20217;-70
2022/10/15 06:54:02;;;;;;;16.40;11.95;;;21.70;99.90;;;;;;4993607;28;20189;-70
2022/10/15 06:56:28;;;;;;;13.30;10.48;;;20.60;99.90;;;;;;4994625;28;20204;-69
2022/10/15 06:58:53;;;;;;;10.32;8.98;;;19.50;99.90;;;;;;4996062;28;20265;-69
2022/10/15 07:01:19;;;;;;;14.77;12.10;;;18.60;99.90;;;;;;5005048;28;20208;-69
2022/10/15 07:03:48;;;;;;;12.50;10.82;;;17.70;99.90;;;;;;4991752;28;20230;-72
2022/10/15 07:06:13;;;;;;;14.15;11.10;;;17.60;99.90;;;;;;5000049;28;20556;-70
2022/10/15 07:08:39;;;;;;;13.32;10.43;;;17.60;99.90;;;;;;4993552;28;20182;-70
2022/10/15 07:11:08;;;;;;;12.10;10.23;;;17.20;99.90;;;;;;4993248;28;20205;-70
2022/10/15 07:13:33;;;;;;;14.02;11.27;;;16.80;99.90;;;;;;4994380;28;20231;-70
2022/10/15 07:16:06;;;;;;;14.77;11.15;;;16.30;99.90;;;;;;4995703;28;20758;-70
2022/10/15 07:18:33;;;;;;;14.48;11.18;;;16.20;99.90;;;;;;4993597;28;20230;-70
2022/10/15 07:20:58;;;;;;;15.02;11.38;;;16.00;99.90;;;;;;4992934;28;20627;-69
2022/10/15 07:23:24;;;;;;;15.10;11.52;;;15.70;99.90;;;;;;4999539;28;20208;-70
2022/10/15 07:25:49;;;;;;;13.48;11.48;;;15.70;99.90;;;;;;4995075;28;20293;-70
2022/10/15 07:28:15;;;;;;;15.68;11.07;;;15.70;99.90;;;;;;4993668;28;20263;-70
2022/10/15 07:30:40;;;;;;;13.90;10.88;;;15.80;99.90;;;;;;4993816;28;20221;-70
2022/10/15 07:33:06;;;;;;;16.08;12.23;;;15.90;99.90;;;;;;4998027;28;20649;-71
2022/10/15 07:35:32;;;;;;;14.57;10.65;;;15.90;99.90;;;;;;4994345;28;20182;-70
2022/10/15 07:38:01;;;;;;;14.73;10.52;;;16.00;99.90;;;;;;4992282;28;20770;-70
2022/10/15 07:40:27;;;;;;;14.63;10.80;;;16.30;99.90;;;;;;4998578;28;20647;-71
2022/10/15 07:42:57;;;;;;;14.30;10.50;;;16.70;99.90;;;;;;4994301;28;20210;-71
2022/10/15 07:45:24;;;;;;;13.18;10.65;;;16.90;99.90;;;;;;4992359;28;20285;-70
2022/10/15 07:47:50;;;;;;;12.52;10.23;;;17.00;99.90;;;;;;4997232;28;20178;-71
2022/10/15 07:50:16;;;;;;;14.88;11.82;;;17.10;99.90;;;;;;5002191;28;20683;-71
2022/10/15 07:52:41;;;;;;;14.75;11.75;;;17.00;99.90;;;;;;4997228;28;20214;-71
2022/10/15 07:55:07;;;;;;;13.35;9.98;;;17.10;99.90;;;;;;4995206;28;20252;-71
2022/10/15 07:57:33;;;;;;;13.77;10.02;;;17.00;99.90;;;;;;5000294;28;20596;-70
2022/10/15 07:59:58;;;;;;;13.45;10.20;;;17.30;99.90;;;;;;4999141;28;20237;-71
2022/10/15 08:02:24;;;;;;;14.95;9.73;;;17.30;99.90;;;;;;4996520;28;20318;-71
2022/10/15 08:04:50;;;;;;;11.60;9.20;;;17.50;99.90;;;;;;4997776;28;20742;-71
2022/10/15 08:07:16;;;;;;;14.48;9.93;;;17.70;99.90;;;;;;5000334;28;20197;-71
2022/10/15 08:09:41;;;;;;;12.30;9.98;;;17.80;99.90;;;;;;4996637;28;20301;-71
2022/10/15 08:12:07;;;;;;;12.25;9.52;;;17.80;99.90;;;;;;4995130;28;20174;-72
2022/10/15 08:14:33;;;;;;;14.02;9.45;;;17.90;99.90;;;;;;5000376;28;20185;-71
2022/10/15 08:17:01;;;;;;;10.98;9.23;;;18.10;99.90;;;;;;4998852;28;20212;-71
2022/10/15 08:19:27;;;;;;;12.02;9.13;;;18.50;99.90;;;;;;4995597;28;20213;-71
2022/10/15 08:21:53;;;;;;;14.00;9.63;;;18.70;99.90;;;;;;4997661;28;20209;-71
2022/10/15 08:24:18;;;;;;;12.10;9.65;;;18.80;99.90;;;;;;5001288;28;20181;-71
2022/10/15 08:26:45;;;;;;;9.95;7.97;;;19.10;99.90;;;;;;4997120;28;20620;-71
2022/10/15 08:29:11;;;;;;;11.23;8.60;;;19.30;99.90;;;;;;4994216;28;20235;-71
2022/10/15 08:31:37;;;;;;;9.23;7.82;;;19.60;99.90;;;;;;5000181;28;20580;-71
2022/10/15 08:34:03;;;;;;;13.20;9.48;;;19.80;99.90;;;;;;4999374;28;20908;-71
2022/10/15 08:36:28;;;;;;;11.82;8.88;;;19.70;99.90;;;;;;5005030;28;20293;-71
2022/10/15 08:38:54;;;;;;;19.75;14.00;;;19.70;99.90;;;;;;4995600;28;20672;-70
2022/10/15 08:41:30;;;;;;;12.00;8.63;;;20.20;99.90;;;;;;5015763;28;20205;-71
2022/10/15 08:43:56;;;;;;;14.65;10.48;;;20.80;99.90;;;;;;4997002;28;20214;-71
2022/10/15 08:46:28;;;;;;;8.75;7.78;;;21.20;99.90;;;;;;4994291;28;20206;-71
2022/10/15 08:48:56;;;;;;;9.95;8.07;;;21.60;99.90;;;;;;4996547;28;20249;-71
2022/10/15 08:51:25;;;;;;;8.73;6.88;;;21.80;99.90;;;;;;5012133;28;20212;-71
2022/10/15 08:53:55;;;;;;;9.85;7.50;;;21.90;99.90;;;;;;4995778;28;20245;-71
2022/10/15 08:56:29;;;;;;;8.80;7.20;;;21.80;99.90;;;;;;4996017;28;20205;-71
2022/10/15 08:59:30;;;;;;;8.52;6.97;;;22.00;99.90;;;;;;4996581;28;20260;-71
2022/10/15 09:02:13;;;;;;;10.25;7.53;;;22.10;99.90;;;;;;4995065;28;20618;-71
2022/10/15 09:05:37;;;;;;;8.32;6.38;;;21.90;99.90;;;;;;5006366;28;20213;-71
2022/10/15 09:08:23;;;;;;;8.18;6.32;;;21.60;99.90;;;;;;4911520;29;20261;-71
2022/10/15 09:10:54;;;;;;;8.45;6.60;;;21.30;99.90;;;;;;4913023;29;20231;-71
2022/10/15 09:13:39;;;;;;;7.70;6.57;;;21.10;99.90;;;;;;4977638;28;20203;-71
2022/10/15 09:16:15;;;;;;;7.82;6.55;;;20.70;99.90;;;;;;4999592;28;20217;-70
2022/10/15 09:18:45;;;;;;;10.20;7.32;;;20.30;99.90;;;;;;5004914;28;20225;-71
2022/10/15 09:21:12;;;;;;;8.23;7.05;;;20.00;99.90;;;;;;4995560;28;20173;-71
2022/10/15 09:23:40;;;;;;;7.53;6.55;;;19.60;99.90;;;;;;4999915;28;20174;-71
2022/10/15 09:26:11;;;;;;;10.10;8.32;;;19.40;99.90;;;;;;4998338;28;20209;-71
2022/10/15 09:29:00;;;;;;;12.77;10.52;;;19.00;99.90;;;;;;4992889;28;20272;-71
2022/10/15 09:31:38;;;;;;;12.07;9.07;;;18.80;99.90;;;;;;4984727;28;20687;-70
2022/10/15 09:34:19;;;;;;;11.25;9.35;;;18.80;99.90;;;;;;4998398;28;20224;-70
2022/10/15 09:36:53;;;;;;;12.88;9.77;;;19.00;99.90;;;;;;4991524;28;20240;-70
2022/10/15 09:39:40;;;;;;;10.68;9.27;;;18.90;99.90;;;;;;4994860;28;20208;-70
2022/10/15 09:42:12;;;;;;;13.25;10.07;;;19.10;99.90;;;;;;4996322;28;20174;-70
2022/10/15 09:44:42;;;;;;;11.55;8.65;;;19.40;99.90;;;;;;4991795;28;20181;-70
2022/10/15 09:47:38;;;;;;;10.75;7.78;;;19.70;99.90;;;;;;4993899;28;20594;-70
2022/10/15 09:50:07;;;;;;;8.90;7.70;;;20.00;99.90;;;;;;4998556;28;20661;-70
2022/10/15 09:53:02;;;;;;;8.70;7.53;;;20.10;99.90;;;;;;4995509;28;20276;-70
2022/10/15 09:55:39;;;;;;;11.43;8.18;;;20.50;99.90;;;;;;5004530;28;20684;-72
2022/10/15 09:58:34;;;;;;;9.40;7.55;;;20.50;99.90;;;;;;5000204;28;20900;-71
2022/10/15 10:01:04;;;;;;;9.07;7.72;;;20.40;99.90;;;;;;4995518;28;20290;-73
2022/10/15 10:03:32;;;;;;;10.52;8.00;;;20.30;99.90;;;;;;4990102;28;20248;-73
2022/10/15 10:06:05;;;;;;;10.43;7.35;;;20.30;99.90;;;;;;5000059;28;20312;-70
2022/10/15 10:08:37;;;;;;;9.07;7.35;;;20.20;99.90;;;;;;4995596;28;20209;-72
2022/10/15 10:11:07;;;;;;;8.38;6.95;;;20.20;99.90;;;;;;4992364;28;20225;-71
2022/10/15 10:13:48;;;;;;;11.00;8.40;;;20.20;99.90;;;;;;4995242;28;20217;-70
2022/10/15 10:16:16;;;;;;;8.65;7.75;;;20.00;99.90;;;;;;4995084;28;20201;-70
2022/10/15 10:18:49;;;;;;;8.52;7.38;;;19.80;99.90;;;;;;4994233;28;20222;-73
2022/10/15 10:21:25;;;;;;;9.02;7.43;;;19.80;99.90;;;;;;4995659;28;20173;-70
2022/10/15 10:23:51;;;;;;;8.23;7.00;;;19.80;99.90;;;;;;4994989;28;20737;-70
2022/10/15 10:26:16;;;;;;;9.18;7.60;;;19.80;99.90;;;;;;4997489;28;20209;-70
2022/10/15 10:28:48;;;;;;;9.20;7.72;;;19.80;99.90;;;;;;4993085;28;20217;-70
2022/10/15 10:31:14;;;;;;;8.60;7.25;;;20.00;99.90;;;;;;5008071;28;20216;-70
2022/10/15 10:33:42;;;;;;;7.55;6.75;;;20.00;99.90;;;;;;4996186;28;20221;-70
2022/10/15 10:36:23;;;;;;;8.65;7.35;;;20.00;99.90;;;;;;4995036;28;20192;-71
2022/10/15 10:39:00;;;;;;;8.07;7.15;;;20.00;99.90;;;;;;4992124;28;20699;-70
2022/10/15 10:41:57;;;;;;;7.97;6.68;;;19.90;99.90;;;;;;5003178;28;20225;-71
2022/10/15 10:44:34;;;;;;;9.50;7.43;;;20.00;99.90;;;;;;5002692;28;20197;-70
2022/10/15 10:47:05;;;;;;;10.00;7.05;;;20.10;99.90;;;;;;4990828;28;20292;-70
2022/10/15 10:49:33;;;;;;;10.77;8.60;;;20.20;99.90;;;;;;4998456;28;20212;-69
2022/10/15 10:51:59;;;;;;;11.30;7.32;;;20.20;99.90;;;;;;4992420;28;20329;-71
2022/10/15 10:54:27;;;;;;;11.93;6.90;;;20.40;99.90;;;;;;4992991;28;20288;-71
2022/10/15 10:56:53;;;;;;;7.95;6.65;;;20.40;99.90;;;;;;4994944;28;20653;-70
2022/10/15 10:59:34;;;;;;;7.32;6.53;;;20.20;99.90;;;;;;4997836;28;20651;-70
2022/10/15 11:02:00;;;;;;;12.35;7.35;;;20.10;99.90;;;;;;4990990;28;20894;-70
2022/10/15 11:04:34;;;;;;;7.40;6.20;;;20.10;99.90;;;;;;4994958;28;20232;-71
2022/10/15 11:07:07;;;;;;;8.85;6.68;;;20.40;99.90;;;;;;4997706;28;20317;-71
2022/10/15 11:09:50;;;;;;;7.85;5.88;;;20.60;99.90;;;;;;5008659;28;20356;-70
2022/10/15 11:12:38;;;;;;;9.98;6.72;;;20.70;99.90;;;;;;4992502;28;20189;-71
2022/10/15 11:15:04;;;;;;;7.70;6.53;;;20.40;99.90;;;;;;4997433;28;20177;-71
2022/10/15 11:17:53;;;;;;;7.95;6.60;;;20.30;99.90;;;;;;4996016;28;20549;-70
2022/10/15 11:20:27;;;;;;;7.93;6.30;;;20.30;99.90;;;;;;4992012;28;20599;-71
2022/10/15 11:23:05;;;;;;;7.72;6.60;;;20.40;99.90;;;;;;4997651;28;20205;-71
2022/10/15 11:25:41;;;;;;;8.65;5.95;;;20.40;99.90;;;;;;5000522;28;20263;-72
2022/10/15 11:28:28;;;;;;;8.68;6.18;;;20.40;99.90;;;;;;4996632;28;20213;-72
2022/10/15 11:30:58;;;;;;;6.43;5.20;;;20.50;99.90;;;;;;5006604;28;20272;-72
2022/10/15 11:33:48;;;;;;;6.63;5.63;;;20.60;99.90;;;;;;5002196;28;20274;-72
2022/10/15 11:36:50;;;;;;;6.22;5.30;;;20.50;99.90;;;;;;4991734;28;20215;-72
2022/10/15 11:39:28;;;;;;;6.35;5.05;;;20.40;99.90;;;;;;4997591;28;20208;-71
2022/10/15 11:42:14;;;;;;;5.03;4.50;;;20.00;99.90;;;;;;4996852;28;20192;-71
2022/10/15 11:45:14;;;;;;;7.65;6.00;;;20.10;99.90;;;;;;4995043;28;20193;-71
2022/10/15 11:47:58;;;;;;;6.60;5.35;;;20.20;99.90;;;;;;4997277;28;20299;-70
2022/10/15 11:50:49;;;;;;;5.75;5.25;;;20.10;99.90;;;;;;4996912;28;20233;-70
2022/10/15 11:53:56;;;;;;;6.90;4.75;;;20.10;99.90;;;;;;4997954;28;20235;-71
2022/10/15 11:56:29;;;;;;;6.00;4.95;;;20.10;99.90;;;;;;4994149;28;20807;-71
2022/10/15 11:59:13;;;;;;;6.65;4.88;;;19.90;99.90;;;;;;4998480;28;20598;-71
2022/10/15 12:01:46;;;;;;;8.18;5.43;;;19.90;99.90;;;;;;4992584;28;20224;-71
2022/10/15 12:04:29;;;;;;;5.90;4.90;;;19.60;99.90;;;;;;5030170;23;21167;-68
2022/10/15 12:06:57;;;;;;;5.20;4.70;;;19.60;99.90;;;;;;5017670;28;20240;-68
2022/10/15 12:09:27;;;;;;;5.68;4.68;;;19.70;99.90;;;;;;5014310;28;20216;-70
2022/10/15 12:12:19;;;;;;;6.68;4.78;;;19.80;99.90;;;;;;5012288;28;20177;-68
2022/10/15 12:14:57;;;;;;;6.03;4.85;;;20.00;99.90;;;;;;5019299;28;20752;-69
2022/10/15 12:17:35;;;;;;;5.18;4.68;;;20.10;99.90;;;;;;5011839;28;20218;-70
2022/10/15 12:20:17;;;;;;;6.00;4.93;;;20.10;99.90;;;;;;5009562;28;20196;-69
2022/10/15 12:22:45;;;;;;;5.22;4.38;;;20.20;99.90;;;;;;5016722;28;20209;-69
2022/10/15 12:25:33;;;;;;;5.05;4.50;;;20.20;99.90;;;;;;5016733;28;20221;-68
2022/10/15 12:28:19;;;;;;;5.18;4.68;;;20.20;99.90;;;;;;4996522;28;20210;-69
2022/10/15 12:31:05;;;;;;;4.78;4.32;;;19.90;99.90;;;;;;5009632;28;20806;-69
2022/10/15 12:33:37;;;;;;;5.03;4.32;;;19.70;99.90;;;;;;5009006;28;20735;-69
2022/10/15 12:36:20;;;;;;;4.25;3.85;;;19.80;99.90;;;;;;5010014;28;20177;-69
2022/10/15 12:38:56;;;;;;;4.97;4.53;;;19.80;99.90;;;;;;5006627;28;20549;-69
2022/10/15 12:41:41;;;;;;;5.72;4.97;;;19.90;99.90;;;;;;5013711;28;20215;-68
2022/10/15 12:44:26;;;;;;;4.70;4.30;;;20.00;99.90;;;;;;5011789;28;20217;-69
2022/10/15 12:46:52;;;;;;;4.70;4.28;;;20.00;99.90;;;;;;4986237;28;20232;-69
2022/10/15 12:49:30;;;;;;;4.03;3.63;;;20.00;99.90;;;;;;5010349;28;20208;-68
2022/10/15 12:51:58;;;;;;;4.38;3.63;;;20.10;99.90;;;;;;4997995;28;20714;-68